Time;durP1;ratioP1;P1;durP2;ratioP2;P2;SDS_P1;SDS_P2;PMS_P1;PMS_P2;Temp;Humidity;BMP_temperature;BMP_pressure;BME280_temperature;BME280_humidity;BME280_pressure;Samples;Min_cycle;Max_cycle;Signal;HPM_P1;HPM_P2
2023/01/18 00:01:59;;;;;;;18.17;9.07;;;3.90;52.70;;;;;;4955186;28;20059;-48
2023/01/18 00:04:27;;;;;;;17.88;9.25;;;3.90;52.70;;;;;;4939102;28;20055;-46
2023/01/18 00:06:56;;;;;;;19.92;10.18;;;3.90;52.80;;;;;;4947370;28;20245;-45
2023/01/18 00:09:23;;;;;;;20.80;10.25;;;3.90;52.80;;;;;;4951767;28;20404;-44
2023/01/18 00:11:50;;;;;;;21.00;10.23;;;3.90;52.80;;;;;;4954690;28;20055;-46
2023/01/18 00:14:17;;;;;;;18.35;9.30;;;3.90;52.90;;;;;;4950503;28;20058;-43
2023/01/18 00:16:45;;;;;;;14.68;8.07;;;3.80;52.90;;;;;;4949257;28;20047;-45
2023/01/18 00:19:13;;;;;;;15.98;7.95;;;3.80;52.90;;;;;;4955626;28;20062;-46
2023/01/18 00:21:40;;;;;;;19.63;9.43;;;3.80;53.00;;;;;;4941199;28;20059;-49
2023/01/18 00:24:14;;;;;;;17.00;8.63;;;3.80;53.50;;;;;;4939603;28;20591;-45
2023/01/18 00:26:43;;;;;;;12.80;7.68;;;3.80;53.00;;;;;;4945039;28;20070;-45
2023/01/18 00:29:10;;;;;;;19.40;9.07;;;3.80;53.00;;;;;;4935507;28;20060;-46
2023/01/18 00:31:37;;;;;;;14.68;7.95;;;3.80;53.00;;;;;;4936315;28;20058;-44
2023/01/18 00:34:05;;;;;;;18.88;9.07;;;3.80;53.00;;;;;;4933415;28;20055;-45
2023/01/18 00:36:32;;;;;;;18.40;8.40;;;3.70;52.90;;;;;;4934825;28;20055;-46
2023/01/18 00:39:00;;;;;;;21.95;9.40;;;3.70;53.00;;;;;;4933449;28;20414;-44
2023/01/18 00:41:29;;;;;;;14.90;7.88;;;3.70;53.10;;;;;;4932969;28;20058;-47
2023/01/18 00:43:55;;;;;;;15.55;8.65;;;3.70;53.20;;;;;;4938367;28;20060;-45
2023/01/18 00:46:24;;;;;;;17.52;8.27;;;3.70;53.20;;;;;;4933090;28;20047;-44
2023/01/18 00:48:52;;;;;;;16.58;8.48;;;3.60;53.20;;;;;;4933824;28;20059;-46
2023/01/18 00:51:21;;;;;;;15.13;8.73;;;3.60;53.30;;;;;;4928554;28;20499;-47
2023/01/18 00:53:49;;;;;;;18.15;7.68;;;3.60;53.40;;;;;;4933289;28;20051;-46
2023/01/18 00:56:19;;;;;;;27.05;8.70;;;3.60;53.40;;;;;;4934549;28;20051;-46
2023/01/18 00:58:47;;;;;;;18.33;8.50;;;3.60;53.40;;;;;;4940037;28;20086;-46
2023/01/18 01:01:15;;;;;;;18.88;9.95;;;3.60;53.40;;;;;;4927649;28;20052;-47
2023/01/18 01:06:45;;;;;;;13.15;7.70;;;3.50;53.30;;;;;;4935715;28;20054;-46
2023/01/18 01:09:15;;;;;;;18.60;9.13;;;3.50;53.30;;;;;;4937206;28;20073;-47
2023/01/18 01:12:31;;;;;;;14.57;8.07;;;3.60;53.30;;;;;;4937290;28;20062;-45
2023/01/18 01:28:17;;;;;;;16.63;8.93;;;3.50;53.40;;;;;;4976684;28;20070;-44
2023/01/18 01:30:45;;;;;;;18.83;9.77;;;3.50;53.50;;;;;;4932774;28;20059;-46
2023/01/18 01:33:12;;;;;;;20.85;8.70;;;3.50;53.40;;;;;;4934082;28;20067;-47
2023/01/18 01:35:40;;;;;;;17.75;8.75;;;3.50;53.40;;;;;;4930719;28;20051;-48
2023/01/18 01:38:07;;;;;;;17.05;8.38;;;3.50;53.40;;;;;;4935913;28;20074;-48
2023/01/18 01:40:34;;;;;;;24.05;9.60;;;3.50;53.40;;;;;;4934269;28;20047;-46
2023/01/18 01:43:01;;;;;;;18.30;8.70;;;3.50;53.50;;;;;;4931092;28;20056;-44
2023/01/18 01:45:31;;;;;;;20.50;9.52;;;3.40;53.40;;;;;;4934746;28;20051;-47
2023/01/18 01:48:00;;;;;;;21.77;9.18;;;3.40;53.40;;;;;;4930730;28;20051;-47
2023/01/18 01:50:32;;;;;;;19.42;9.02;;;3.40;53.90;;;;;;4936621;28;20775;-46
2023/01/18 01:52:59;;;;;;;12.07;7.85;;;3.40;53.40;;;;;;4931596;28;20051;-44
2023/01/18 01:55:30;;;;;;;15.10;7.82;;;3.40;53.30;;;;;;4930189;28;20717;-44
2023/01/18 01:58:00;;;;;;;17.70;9.30;;;3.40;53.40;;;;;;4932600;28;20063;-44
2023/01/18 02:00:28;;;;;;;15.85;7.97;;;3.40;53.40;;;;;;4929323;28;20086;-44
2023/01/18 02:02:59;;;;;;;16.42;8.38;;;3.30;53.40;;;;;;4938283;28;20066;-44
2023/01/18 02:05:28;;;;;;;14.65;7.90;;;3.30;54.00;;;;;;4932407;28;20055;-47
2023/01/18 02:07:59;;;;;;;15.60;8.20;;;3.30;53.50;;;;;;4940534;28;20066;-46
2023/01/18 02:10:26;;;;;;;14.35;8.65;;;3.40;53.60;;;;;;4930874;28;20419;-46
2023/01/18 02:12:54;;;;;;;16.80;8.95;;;3.30;53.50;;;;;;4925853;28;20051;-46
2023/01/18 02:15:22;;;;;;;14.05;8.27;;;3.30;53.40;;;;;;4933782;28;20051;-47
2023/01/18 02:18:06;;;;;;;14.02;8.07;;;3.30;53.30;;;;;;4927155;28;20086;-48
2023/01/18 02:21:10;;;;;;;15.30;8.45;;;3.30;53.30;;;;;;4939811;28;20083;-45
2023/01/18 02:24:14;;;;;;;20.98;9.50;;;3.30;53.30;;;;;;4931895;28;20054;-44
2023/01/18 02:27:04;;;;;;;19.20;9.35;;;3.30;53.20;;;;;;4934688;28;20404;-44
2023/01/18 02:29:54;;;;;;;26.30;9.27;;;3.20;53.10;;;;;;4922889;28;20388;-43
2023/01/18 02:32:32;;;;;;;20.45;9.60;;;3.10;53.20;;;;;;4924375;28;20062;-47
2023/01/18 02:35:07;;;;;;;16.02;8.45;;;3.10;53.40;;;;;;4946893;28;20064;-45
2023/01/18 02:37:42;;;;;;;21.08;10.48;;;3.10;53.60;;;;;;4949723;28;20061;-45
2023/01/18 02:40:17;;;;;;;18.60;9.50;;;3.10;53.70;;;;;;4921548;28;20051;-47
2023/01/18 02:48:20;;;;;;;17.38;7.90;;;3.00;53.90;;;;;;4929162;28;20062;-45
2023/01/18 02:50:48;;;;;;;19.02;8.80;;;3.00;53.80;;;;;;4919732;28;20055;-47
2023/01/18 02:53:16;;;;;;;13.20;7.45;;;3.00;53.60;;;;;;4923714;28;20060;-44
2023/01/18 02:55:50;;;;;;;15.48;7.75;;;3.00;53.40;;;;;;4921700;28;20056;-48
2023/01/18 02:58:23;;;;;;;15.05;8.45;;;3.00;53.40;;;;;;4920999;28;20412;-48
2023/01/18 03:00:57;;;;;;;17.08;8.38;;;3.00;53.40;;;;;;4924655;28;20055;-48
2023/01/18 03:03:25;;;;;;;14.83;8.33;;;3.00;53.40;;;;;;4921540;28;20082;-48
2023/01/18 03:05:57;;;;;;;14.10;8.20;;;2.90;53.40;;;;;;4954806;28;20851;-43
2023/01/18 03:08:34;;;;;;;15.27;8.80;;;2.90;53.50;;;;;;4922325;28;20056;-45
2023/01/18 03:11:04;;;;;;;15.77;8.45;;;2.90;53.50;;;;;;4922306;28;20060;-44
2023/01/18 03:13:48;;;;;;;19.10;9.00;;;2.90;53.50;;;;;;4924797;28;20052;-45
2023/01/18 03:16:22;;;;;;;17.55;9.38;;;2.90;53.50;;;;;;4922707;28;20044;-44
2023/01/18 03:19:01;;;;;;;16.73;8.65;;;2.90;53.60;;;;;;4933033;28;20053;-46
2023/01/18 03:21:35;;;;;;;16.10;9.30;;;2.90;53.60;;;;;;4933967;28;20404;-44
2023/01/18 03:24:05;;;;;;;18.73;9.27;;;2.90;53.70;;;;;;4921498;28;20055;-43
2023/01/18 03:26:38;;;;;;;17.00;8.93;;;2.90;53.70;;;;;;4924359;28;20048;-47
2023/01/18 03:34:49;;;;;;;17.80;9.23;;;2.80;53.90;;;;;;4947940;28;20070;-45
2023/01/18 03:37:19;;;;;;;17.67;9.68;;;2.80;54.00;;;;;;4943507;28;20055;-47
2023/01/18 03:39:51;;;;;;;15.73;9.00;;;2.90;54.00;;;;;;4946163;28;20051;-46
2023/01/18 03:42:23;;;;;;;15.27;8.85;;;2.90;54.10;;;;;;4954400;28;20055;-48
2023/01/18 03:44:58;;;;;;;20.95;10.60;;;2.90;54.10;;;;;;4950835;28;20066;-45
2023/01/18 03:47:26;;;;;;;18.35;9.68;;;2.90;54.10;;;;;;4952908;28;20051;-44
2023/01/18 03:49:54;;;;;;;20.20;9.52;;;2.90;54.10;;;;;;4944125;28;20396;-45
2023/01/18 03:52:24;;;;;;;20.30;9.38;;;2.90;54.10;;;;;;4935036;28;20054;-45
2023/01/18 03:54:59;;;;;;;14.75;9.23;;;2.90;54.20;;;;;;4947675;28;20055;-46
2023/01/18 03:57:31;;;;;;;18.75;9.95;;;2.90;54.20;;;;;;4949140;28;20274;-43
2023/01/18 04:00:00;;;;;;;16.25;9.50;;;3.00;54.30;;;;;;4949847;28;20061;-49
2023/01/18 04:02:29;;;;;;;19.80;10.15;;;3.00;54.30;;;;;;4955139;28;20050;-48
2023/01/18 04:05:02;;;;;;;19.67;9.73;;;3.00;54.40;;;;;;4947226;28;20458;-44
2023/01/18 04:07:29;;;;;;;20.67;10.70;;;3.00;54.40;;;;;;4945904;28;20050;-45
2023/01/18 04:09:57;;;;;;;18.77;10.90;;;3.00;54.50;;;;;;4940411;28;20061;-43
2023/01/18 04:12:24;;;;;;;19.63;9.95;;;3.10;54.50;;;;;;4950762;28;20494;-44
2023/01/18 04:14:51;;;;;;;18.25;9.65;;;3.10;54.60;;;;;;4954671;28;20396;-47
2023/01/18 04:17:18;;;;;;;23.25;11.15;;;3.10;54.50;;;;;;4948361;28;20062;-44
2023/01/18 04:19:47;;;;;;;19.15;10.05;;;3.10;54.50;;;;;;4955079;28;20050;-49
2023/01/18 04:22:14;;;;;;;21.10;11.45;;;3.10;54.50;;;;;;4947981;28;20054;-46
2023/01/18 04:24:41;;;;;;;20.52;10.63;;;3.10;54.50;;;;;;4946367;28;20051;-48
2023/01/18 04:27:09;;;;;;;17.05;8.38;;;3.10;54.60;;;;;;4953462;28;20051;-46
2023/01/18 04:29:36;;;;;;;13.55;7.32;;;3.10;54.60;;;;;;4937308;28;21970;-45
2023/01/18 04:32:04;;;;;;;13.23;7.93;;;3.10;54.40;;;;;;4934994;28;20070;-44
2023/01/18 04:34:31;;;;;;;12.82;7.60;;;3.20;54.30;;;;;;4931074;28;20054;-44
2023/01/18 04:37:00;;;;;;;16.88;8.13;;;3.10;54.10;;;;;;4929332;28;20052;-46
2023/01/18 04:39:27;;;;;;;17.17;8.60;;;3.20;54.00;;;;;;4933519;28;20127;-47
2023/01/18 04:41:55;;;;;;;14.60;7.85;;;3.10;53.80;;;;;;4937146;28;20522;-45
2023/01/18 04:44:22;;;;;;;17.48;8.77;;;3.10;53.70;;;;;;4933586;28;21462;-47
2023/01/18 04:46:49;;;;;;;12.75;8.02;;;3.10;53.70;;;;;;4926009;28;20059;-46
2023/01/18 04:49:17;;;;;;;21.00;9.93;;;3.10;53.70;;;;;;4936911;28;20058;-44
2023/01/18 04:51:45;;;;;;;18.40;8.95;;;3.10;53.70;;;;;;4931548;28;20056;-47
2023/01/18 04:54:17;;;;;;;19.88;9.93;;;3.10;53.80;;;;;;4934611;28;20055;-46
2023/01/18 04:56:44;;;;;;;14.60;8.23;;;3.10;53.90;;;;;;4933265;28;20059;-48
2023/01/18 04:59:14;;;;;;;17.02;9.10;;;3.00;53.90;;;;;;4934722;28;20065;-47
2023/01/18 05:01:41;;;;;;;19.08;9.93;;;3.00;53.90;;;;;;4927952;28;20059;-43
2023/01/18 05:04:08;;;;;;;18.77;9.80;;;3.00;53.90;;;;;;4930808;28;20066;-47
2023/01/18 05:06:36;;;;;;;18.27;9.43;;;3.00;53.90;;;;;;4934971;28;20427;-47
2023/01/18 05:09:03;;;;;;;19.25;9.93;;;3.00;54.00;;;;;;4937015;28;20058;-48
2023/01/18 05:11:31;;;;;;;23.00;11.10;;;3.00;54.00;;;;;;4933353;28;20132;-45
2023/01/18 05:13:58;;;;;;;23.42;11.30;;;3.00;54.00;;;;;;4931671;28;20059;-46
2023/01/18 05:16:26;;;;;;;26.73;12.13;;;3.00;54.00;;;;;;4940251;28;20066;-46
2023/01/18 05:18:54;;;;;;;26.60;11.80;;;3.00;54.10;;;;;;4938994;28;20074;-47
2023/01/18 05:21:21;;;;;;;25.13;12.02;;;3.00;54.20;;;;;;4937800;28;20543;-42
2023/01/18 05:23:48;;;;;;;28.50;13.18;;;3.00;54.20;;;;;;4933984;28;20431;-44
2023/01/18 05:26:17;;;;;;;26.88;12.43;;;3.00;54.30;;;;;;4936239;28;20066;-46
2023/01/18 05:28:46;;;;;;;24.60;12.20;;;3.00;54.30;;;;;;4935589;28;20063;-47
2023/01/18 05:31:14;;;;;;;32.22;13.30;;;3.00;54.40;;;;;;4935266;28;20514;-44
2023/01/18 05:33:42;;;;;;;34.50;13.02;;;3.00;54.50;;;;;;4940973;28;20051;-47
2023/01/18 05:36:09;;;;;;;28.20;12.73;;;3.00;54.50;;;;;;4931442;28;20047;-45
2023/01/18 05:38:36;;;;;;;29.23;12.05;;;3.00;54.60;;;;;;4937072;28;20521;-46
2023/01/18 05:41:04;;;;;;;42.08;13.77;;;3.00;54.60;;;;;;4934236;28;20059;-47
2023/01/18 05:43:31;;;;;;;34.25;12.55;;;3.00;54.60;;;;;;4936848;28;20068;-44
2023/01/18 05:46:00;;;;;;;24.70;12.32;;;3.00;54.60;;;;;;4932915;28;20059;-45
2023/01/18 05:48:27;;;;;;;145.10;50.45;;;3.00;54.70;;;;;;4936185;28;20510;-45
2023/01/18 05:50:54;;;;;;;84.22;33.55;;;3.00;54.70;;;;;;4924351;28;20067;-45
2023/01/18 05:53:22;;;;;;;42.53;19.08;;;3.00;54.70;;;;;;4928689;28;20067;-46
2023/01/18 05:55:57;;;;;;;29.33;13.95;;;3.00;54.80;;;;;;4972624;28;20448;-44
2023/01/18 05:58:25;;;;;;;30.17;13.50;;;3.00;54.80;;;;;;4934028;28;20055;-46
2023/01/18 06:00:52;;;;;;;26.10;12.25;;;3.00;54.80;;;;;;4934201;28;20483;-47
2023/01/18 06:03:21;;;;;;;27.35;12.73;;;3.00;54.80;;;;;;4937130;28;20051;-43
2023/01/18 06:05:50;;;;;;;22.85;12.27;;;3.00;54.70;;;;;;4940611;28;20053;-45
2023/01/18 06:08:17;;;;;;;25.08;12.95;;;3.00;54.70;;;;;;4947937;28;20357;-46
2023/01/18 06:10:51;;;;;;;24.75;13.10;;;2.90;54.60;;;;;;4931534;28;20058;-47
2023/01/18 06:13:18;;;;;;;;;;;2.90;54.60;;;;;;4937106;28;20055;-47
2023/01/18 06:15:46;;;;;;;23.30;11.82;;;3.00;54.70;;;;;;4947199;28;20575;-43
2023/01/18 06:18:13;;;;;;;24.02;12.23;;;2.90;54.40;;;;;;4947751;28;20063;-43
2023/01/18 06:20:41;;;;;;;25.15;12.88;;;2.90;54.40;;;;;;4927397;28;20052;-45
2023/01/18 06:23:08;;;;;;;25.75;13.05;;;2.90;54.50;;;;;;4933389;28;20811;-47
2023/01/18 06:25:36;;;;;;;26.55;13.63;;;2.90;54.60;;;;;;4930636;28;20056;-43
2023/01/18 06:28:03;;;;;;;24.25;13.27;;;2.80;54.60;;;;;;4937530;28;20448;-46
2023/01/18 06:30:31;;;;;;;26.40;12.48;;;2.80;54.60;;;;;;4928460;28;20059;-45
2023/01/18 06:33:03;;;;;;;22.73;12.43;;;2.80;54.60;;;;;;4939727;28;20059;-45
2023/01/18 06:35:30;;;;;;;24.98;12.00;;;2.80;54.50;;;;;;4937938;28;20051;-48
2023/01/18 06:37:59;;;;;;;26.70;13.05;;;2.80;54.50;;;;;;4937205;28;20051;-48
2023/01/18 06:40:27;;;;;;;25.27;13.15;;;2.80;54.60;;;;;;4938764;28;20424;-48
2023/01/18 06:42:54;;;;;;;30.15;12.70;;;2.80;54.60;;;;;;4935877;28;20052;-44
2023/01/18 06:45:21;;;;;;;24.58;12.48;;;2.80;54.60;;;;;;4936731;28;20055;-46
2023/01/18 06:47:49;;;;;;;65.43;23.98;;;2.70;54.60;;;;;;4935962;28;20507;-45
2023/01/18 06:50:17;;;;;;;67.60;26.17;;;2.80;54.70;;;;;;4964241;28;20402;-45
2023/01/18 06:52:44;;;;;;;40.55;17.02;;;2.70;54.60;;;;;;4941802;28;20055;-46
2023/01/18 06:55:14;;;;;;;30.23;14.68;;;2.70;54.60;;;;;;4936065;28;20063;-47
2023/01/18 06:57:41;;;;;;;29.05;14.00;;;2.80;54.60;;;;;;4937845;28;20062;-46
2023/01/18 07:00:10;;;;;;;23.25;11.88;;;2.70;54.50;;;;;;4940989;28;20056;-46
2023/01/18 07:02:37;;;;;;;26.92;11.60;;;2.70;54.50;;;;;;4933198;28;20051;-47
2023/01/18 07:05:05;;;;;;;29.35;13.07;;;2.70;54.50;;;;;;4937721;28;20055;-47
2023/01/18 07:07:32;;;;;;;26.13;11.43;;;2.70;54.40;;;;;;4939315;28;20047;-46
2023/01/18 07:10:00;;;;;;;26.73;13.50;;;2.70;54.50;;;;;;4941054;28;20062;-48
2023/01/18 07:12:28;;;;;;;22.02;11.40;;;2.70;54.50;;;;;;4939222;28;20407;-48
2023/01/18 07:14:56;;;;;;;20.77;11.05;;;2.70;54.40;;;;;;4943105;28;20051;-47
2023/01/18 07:17:23;;;;;;;22.58;11.75;;;2.60;54.30;;;;;;4934385;28;20051;-46
2023/01/18 07:19:51;;;;;;;24.00;11.77;;;2.60;54.40;;;;;;4966714;28;20059;-46
2023/01/18 07:22:18;;;;;;;25.05;12.63;;;2.60;54.40;;;;;;4940278;28;20051;-45
2023/01/18 07:24:45;;;;;;;24.65;12.68;;;2.60;54.50;;;;;;4940294;28;20063;-45
2023/01/18 07:27:13;;;;;;;25.05;12.32;;;2.60;54.50;;;;;;4942136;28;20495;-46
2023/01/18 07:29:41;;;;;;;26.98;12.32;;;2.60;54.50;;;;;;4927899;28;20052;-45
2023/01/18 07:32:08;;;;;;;28.88;12.15;;;2.60;54.40;;;;;;4922416;28;20412;-47
2023/01/18 07:34:36;;;;;;;22.08;11.25;;;2.60;54.40;;;;;;4967007;28;20498;-44
2023/01/18 07:37:03;;;;;;;34.50;13.23;;;2.60;54.40;;;;;;4949479;28;20442;-44
2023/01/18 07:39:30;;;;;;;32.00;12.13;;;2.60;54.40;;;;;;4941238;28;20066;-46
2023/01/18 07:41:57;;;;;;;22.70;11.23;;;2.60;54.50;;;;;;4934212;28;20055;-46
2023/01/18 07:44:25;;;;;;;23.25;11.20;;;2.50;54.50;;;;;;4916879;28;20060;-45
2023/01/18 07:46:53;;;;;;;26.90;12.93;;;2.50;54.60;;;;;;4929525;28;20051;-43
2023/01/18 07:49:21;;;;;;;25.70;12.70;;;2.50;54.60;;;;;;4924529;28;20090;-49
2023/01/18 07:51:48;;;;;;;27.80;11.95;;;2.50;54.60;;;;;;4930211;28;20054;-43
2023/01/18 07:54:17;;;;;;;25.30;12.07;;;2.50;54.60;;;;;;4932474;28;20411;-46
2023/01/18 07:56:45;;;;;;;24.50;11.43;;;2.50;54.60;;;;;;4933802;28;20058;-47
2023/01/18 07:59:12;;;;;;;23.00;10.90;;;2.60;54.60;;;;;;4928472;28;20067;-48
2023/01/18 08:01:39;;;;;;;25.85;11.85;;;2.60;54.60;;;;;;4926042;28;20067;-45
2023/01/18 08:04:08;;;;;;;26.95;11.43;;;2.60;54.60;;;;;;4925767;28;20526;-46
2023/01/18 08:06:36;;;;;;;22.20;11.82;;;2.60;54.60;;;;;;4918341;28;20051;-47
2023/01/18 08:09:03;;;;;;;24.27;12.30;;;2.60;54.60;;;;;;4933360;28;20054;-47
2023/01/18 08:11:31;;;;;;;24.33;11.38;;;2.60;54.70;;;;;;4932411;28;20062;-46
2023/01/18 08:13:58;;;;;;;24.10;11.52;;;2.60;54.70;;;;;;4925133;28;20075;-46
2023/01/18 08:16:25;;;;;;;24.55;11.98;;;2.60;54.70;;;;;;4926267;28;20062;-44
2023/01/18 08:18:53;;;;;;;31.92;13.68;;;2.60;54.70;;;;;;4926343;28;20059;-42
2023/01/18 08:21:21;;;;;;;28.45;12.52;;;2.60;54.80;;;;;;4927799;28;20047;-48
2023/01/18 08:23:50;;;;;;;22.42;12.10;;;2.60;54.80;;;;;;4922422;28;20499;-44
2023/01/18 08:26:17;;;;;;;27.85;16.08;;;2.60;54.80;;;;;;4930180;28;21119;-47
2023/01/18 08:28:44;;;;;;;30.50;14.90;;;2.60;54.80;;;;;;4926555;28;20416;-45
2023/01/18 08:31:13;;;;;;;37.08;16.85;;;2.60;55.10;;;;;;4932205;28;20082;-46
2023/01/18 08:33:44;;;;;;;28.80;14.85;;;2.70;54.90;;;;;;4925432;28;20068;-44
2023/01/18 08:36:14;;;;;;;26.85;12.18;;;2.70;54.90;;;;;;4932792;28;20060;-48
2023/01/18 08:38:43;;;;;;;23.60;12.52;;;2.70;54.90;;;;;;4931910;28;20058;-45
2023/01/18 08:41:10;;;;;;;30.00;11.93;;;2.70;54.90;;;;;;4931393;28;20403;-43
2023/01/18 08:43:37;;;;;;;25.48;12.73;;;2.70;54.90;;;;;;4923138;28;20059;-45
2023/01/18 08:46:05;;;;;;;31.10;13.80;;;2.70;54.90;;;;;;4921057;28;20048;-45
2023/01/18 08:48:32;;;;;;;28.58;13.65;;;2.70;54.90;;;;;;4921607;28;20059;-47
2023/01/18 08:51:01;;;;;;;56.90;22.02;;;2.80;55.00;;;;;;4926054;28;20059;-47
2023/01/18 08:53:28;;;;;;;67.88;25.10;;;2.80;55.10;;;;;;4928294;28;20054;-45
2023/01/18 08:55:57;;;;;;;39.10;16.35;;;2.80;55.10;;;;;;4928274;28;20059;-47
2023/01/18 08:58:24;;;;;;;34.80;14.77;;;2.80;55.10;;;;;;4923236;28;20059;-44
2023/01/18 09:00:53;;;;;;;28.48;13.10;;;2.80;55.10;;;;;;4953627;28;20066;-45
2023/01/18 09:03:21;;;;;;;25.05;13.52;;;2.80;55.10;;;;;;4933360;28;20411;-48
2023/01/18 09:05:49;;;;;;;26.88;12.65;;;2.90;55.20;;;;;;4934076;28;20063;-44
2023/01/18 09:08:17;;;;;;;27.83;14.35;;;2.90;55.20;;;;;;4922956;28;20514;-45
2023/01/18 09:10:44;;;;;;;66.88;27.52;;;2.90;55.20;;;;;;4922421;28;20052;-44
2023/01/18 09:13:13;;;;;;;50.20;20.70;;;2.90;55.20;;;;;;4926079;28;20055;-44
2023/01/18 09:15:40;;;;;;;39.03;17.95;;;2.90;55.20;;;;;;4929999;28;20059;-46
2023/01/18 09:18:07;;;;;;;32.65;18.75;;;2.90;55.20;;;;;;4935163;28;20545;-44
2023/01/18 09:20:35;;;;;;;32.33;18.77;;;3.00;55.30;;;;;;4925020;28;20062;-47
2023/01/18 09:23:06;;;;;;;40.65;20.75;;;3.00;55.30;;;;;;4926976;28;20060;-45
2023/01/18 09:25:35;;;;;;;34.63;17.27;;;3.00;55.40;;;;;;4930237;28;20084;-43
2023/01/18 09:28:03;;;;;;;42.65;18.83;;;3.00;55.40;;;;;;4930313;28;20815;-46
2023/01/18 09:30:34;;;;;;;35.85;15.38;;;3.10;55.40;;;;;;4941184;28;20510;-45
2023/01/18 09:33:02;;;;;;;29.25;13.98;;;3.10;55.50;;;;;;4940026;28;20051;-44
2023/01/18 09:35:31;;;;;;;28.55;13.35;;;3.10;55.50;;;;;;4940274;28;20150;-45
2023/01/18 09:37:59;;;;;;;27.75;13.05;;;3.20;55.60;;;;;;4941415;28;20530;-48
2023/01/18 09:40:41;;;;;;;23.92;13.02;;;3.10;55.60;;;;;;4939559;28;20047;-45
2023/01/18 09:43:16;;;;;;;29.58;12.98;;;3.20;55.70;;;;;;4941236;28;20516;-47
2023/01/18 09:45:47;;;;;;;21.52;10.60;;;3.20;55.80;;;;;;4936915;28;20052;-46
2023/01/18 09:48:26;;;;;;;28.95;13.40;;;3.30;55.80;;;;;;4937553;28;20055;-43
2023/01/18 09:50:55;;;;;;;29.55;13.63;;;3.30;55.90;;;;;;4939128;28;20522;-45
2023/01/18 09:53:36;;;;;;;26.33;14.13;;;3.40;55.90;;;;;;4939238;28;20066;-43
2023/01/18 09:56:11;;;;;;;32.50;13.98;;;3.40;56.00;;;;;;4939595;28;20055;-44
2023/01/18 09:58:51;;;;;;;29.55;14.60;;;3.40;56.00;;;;;;4937326;28;20210;-47
2023/01/18 10:01:22;;;;;;;32.20;15.27;;;3.50;56.10;;;;;;4937744;28;20061;-46
2023/01/18 10:03:53;;;;;;;29.83;13.98;;;3.50;56.10;;;;;;4937048;28;20067;-46
2023/01/18 10:06:25;;;;;;;40.22;16.67;;;3.60;56.20;;;;;;4939889;28;20419;-44
2023/01/18 10:08:56;;;;;;;37.33;15.75;;;3.60;56.40;;;;;;4940762;28;20055;-43
2023/01/18 10:11:30;;;;;;;27.20;14.43;;;3.70;56.70;;;;;;4941403;28;20388;-44
2023/01/18 10:14:07;;;;;;;41.95;16.08;;;3.70;56.70;;;;;;4938552;28;20052;-47
2023/01/18 10:16:37;;;;;;;25.73;13.18;;;3.70;56.70;;;;;;4937811;28;20051;-47
2023/01/18 10:19:15;;;;;;;29.05;14.07;;;3.80;57.30;;;;;;4937187;28;20047;-46
2023/01/18 10:21:51;;;;;;;31.13;16.10;;;3.80;56.80;;;;;;4938603;28;20074;-48
2023/01/18 10:24:44;;;;;;;25.60;13.63;;;3.90;56.90;;;;;;4938545;28;20555;-44
2023/01/18 10:27:34;;;;;;;31.55;16.13;;;3.90;56.90;;;;;;4940464;28;20052;-46
2023/01/18 10:30:24;;;;;;;29.55;13.77;;;4.00;57.00;;;;;;4920896;28;20059;-45
2023/01/18 10:32:56;;;;;;;22.67;12.27;;;4.00;56.90;;;;;;4921863;28;20480;-43
2023/01/18 10:35:29;;;;;;;25.00;13.30;;;4.10;56.90;;;;;;4924675;28;20056;-43
2023/01/18 10:37:59;;;;;;;31.20;12.93;;;4.10;56.90;;;;;;4954486;28;20841;-44
2023/01/18 10:40:26;;;;;;;26.35;12.38;;;4.20;56.90;;;;;;4926287;28;20058;-48
2023/01/18 10:42:58;;;;;;;35.97;13.02;;;4.20;56.90;;;;;;4935577;28;20058;-45
2023/01/18 10:45:28;;;;;;;21.80;10.85;;;4.20;56.70;;;;;;4930319;28;20058;-44
2023/01/18 10:48:17;;;;;;;22.67;11.27;;;4.30;56.60;;;;;;4932988;28;20060;-48
2023/01/18 10:50:48;;;;;;;22.83;12.52;;;4.30;56.40;;;;;;4924421;28;20056;-46
2023/01/18 10:53:27;;;;;;;36.35;15.63;;;4.40;56.20;;;;;;4925271;28;20052;-46
2023/01/18 10:55:58;;;;;;;30.08;15.65;;;4.50;56.30;;;;;;4928445;28;20491;-48
2023/01/18 10:58:29;;;;;;;39.38;15.95;;;4.50;56.20;;;;;;4928713;28;20250;-44
2023/01/18 11:00:57;;;;;;;32.70;15.88;;;4.50;56.20;;;;;;4932647;28;20060;-45
2023/01/18 11:03:27;;;;;;;37.42;16.90;;;4.60;56.20;;;;;;4932038;28;20043;-45
2023/01/18 11:06:04;;;;;;;41.63;17.90;;;4.70;56.20;;;;;;4927922;28;20066;-46
2023/01/18 11:08:35;;;;;;;39.55;17.23;;;4.70;56.20;;;;;;4925440;28;20066;-46
2023/01/18 11:11:05;;;;;;;22.92;12.73;;;4.80;56.20;;;;;;4924994;28;20060;-45
2023/01/18 11:13:40;;;;;;;23.48;11.05;;;4.80;56.10;;;;;;4925362;28;20074;-46
2023/01/18 11:16:13;;;;;;;19.80;10.10;;;4.90;56.00;;;;;;4925336;28;20555;-48
2023/01/18 11:18:58;;;;;;;20.73;9.90;;;4.90;55.80;;;;;;4935080;28;20066;-45
2023/01/18 11:21:29;;;;;;;14.65;7.70;;;5.00;55.60;;;;;;4932651;28;20051;-48
2023/01/18 11:23:57;;;;;;;14.70;8.55;;;5.00;55.60;;;;;;4923597;28;20052;-46
2023/01/18 11:26:24;;;;;;;18.20;8.88;;;5.10;55.50;;;;;;4930177;28;20411;-46
2023/01/18 11:28:58;;;;;;;17.92;8.45;;;5.10;55.30;;;;;;4934698;28;20519;-46
2023/01/18 11:31:27;;;;;;;21.20;8.43;;;5.10;55.00;;;;;;4927568;28;20071;-49
2023/01/18 11:33:58;;;;;;;19.13;8.18;;;5.20;54.90;;;;;;4927501;28;20067;-44
2023/01/18 11:36:37;;;;;;;18.35;8.43;;;5.20;54.70;;;;;;4933696;28;20059;-46
2023/01/18 11:39:28;;;;;;;19.30;8.68;;;5.20;54.40;;;;;;4923271;28;20415;-46
2023/01/18 11:42:22;;;;;;;15.68;7.97;;;5.30;54.70;;;;;;4920608;28;20060;-47
2023/01/18 11:45:15;;;;;;;15.93;7.90;;;5.30;54.20;;;;;;4964557;28;20055;-43
2023/01/18 11:47:53;;;;;;;17.65;8.52;;;5.30;54.10;;;;;;4923187;28;20514;-47
2023/01/18 11:50:29;;;;;;;16.33;7.60;;;5.40;54.10;;;;;;4923621;28;20522;-48
2023/01/18 11:53:02;;;;;;;13.18;6.88;;;5.40;53.90;;;;;;4924700;28;20047;-43
2023/01/18 11:55:34;;;;;;;15.00;7.93;;;5.40;53.90;;;;;;4929543;28;20066;-43
2023/01/18 11:58:04;;;;;;;15.80;7.90;;;5.40;53.90;;;;;;4928490;28;20060;-46
2023/01/18 12:00:43;;;;;;;13.95;7.35;;;5.50;53.90;;;;;;4924288;28;20067;-47
2023/01/18 12:03:27;;;;;;;16.90;7.20;;;5.50;53.80;;;;;;4922482;28;20047;-46
2023/01/18 12:06:02;;;;;;;15.55;6.88;;;5.50;53.80;;;;;;4917996;28;20048;-48
2023/01/18 12:08:58;;;;;;;15.10;7.68;;;5.60;53.80;;;;;;4929132;28;20051;-44
2023/01/18 12:11:46;;;;;;;12.65;6.78;;;5.60;53.70;;;;;;4925741;28;20056;-48
2023/01/18 12:14:29;;;;;;;18.65;6.90;;;5.60;53.70;;;;;;4924983;28;20377;-46
2023/01/18 12:17:20;;;;;;;18.55;7.43;;;5.60;53.50;;;;;;4923692;28;20523;-51
2023/01/18 12:19:57;;;;;;;14.90;7.38;;;5.70;53.50;;;;;;4924018;28;20531;-46
2023/01/18 12:22:46;;;;;;;14.48;7.22;;;5.70;53.50;;;;;;4933474;28;20487;-46
2023/01/18 12:25:37;;;;;;;13.27;7.80;;;5.70;53.40;;;;;;4925040;28;20056;-45
2023/01/18 12:28:15;;;;;;;14.52;7.80;;;5.80;53.40;;;;;;4956933;28;20525;-48
2023/01/18 12:30:56;;;;;;;14.15;7.28;;;5.80;53.40;;;;;;4943579;28;20510;-47
2023/01/18 12:33:33;;;;;;;11.95;6.85;;;5.80;53.40;;;;;;4942635;28;20074;-45
2023/01/18 12:36:21;;;;;;;13.70;6.97;;;5.80;53.40;;;;;;4942042;28;20407;-44
2023/01/18 12:38:51;;;;;;;11.63;6.57;;;5.90;53.50;;;;;;4940608;28;20102;-52
2023/01/18 12:41:32;;;;;;;14.15;7.00;;;5.90;53.60;;;;;;4943057;28;20495;-48
2023/01/18 12:44:20;;;;;;;13.88;6.63;;;5.90;53.30;;;;;;4942682;29;20055;-45
2023/01/18 12:46:59;;;;;;;9.73;6.05;;;5.90;53.10;;;;;;4940284;28;20063;-44
2023/01/18 12:49:32;;;;;;;15.40;7.20;;;5.90;53.00;;;;;;4943700;28;20491;-48
2023/01/18 12:52:02;;;;;;;14.85;6.88;;;5.90;52.50;;;;;;4943475;29;20430;-48
2023/01/18 12:54:35;;;;;;;11.45;6.85;;;5.90;52.50;;;;;;4941617;28;20047;-47
2023/01/18 12:57:03;;;;;;;12.55;6.78;;;6.00;52.50;;;;;;4942249;29;20059;-44
2023/01/18 12:59:40;;;;;;;12.40;7.15;;;6.00;52.60;;;;;;4943016;28;20507;-45
2023/01/18 13:02:23;;;;;;;15.43;6.95;;;6.00;52.50;;;;;;4941865;28;20070;-45
2023/01/18 13:04:55;;;;;;;12.13;6.45;;;6.00;51.90;;;;;;4939567;28;20507;-46
2023/01/18 13:07:36;;;;;;;12.18;6.85;;;6.00;52.10;;;;;;4942761;28;20074;-45
2023/01/18 13:10:07;;;;;;;14.85;6.57;;;6.00;52.10;;;;;;4941924;28;20059;-45
2023/01/18 13:12:34;;;;;;;14.10;6.88;;;6.00;52.20;;;;;;4942602;28;20062;-46
2023/01/18 13:15:07;;;;;;;12.43;6.63;;;6.10;52.20;;;;;;4942654;28;20055;-43
2023/01/18 13:17:41;;;;;;;18.42;6.93;;;6.10;52.10;;;;;;4940910;28;20062;-49
2023/01/18 13:20:17;;;;;;;13.38;6.68;;;6.10;52.10;;;;;;4941877;28;20055;-43
2023/01/18 13:22:54;;;;;;;14.23;6.30;;;6.10;52.20;;;;;;4942970;28;20089;-47
2023/01/18 13:25:38;;;;;;;12.38;6.40;;;6.20;52.10;;;;;;4940286;29;20051;-45
2023/01/18 13:28:16;;;;;;;10.38;6.03;;;6.10;51.80;;;;;;4936964;28;20059;-45
2023/01/18 13:30:55;;;;;;;13.48;5.95;;;6.20;51.80;;;;;;4942159;29;20047;-46
2023/01/18 13:33:24;;;;;;;12.90;5.47;;;6.20;51.80;;;;;;4942405;28;20423;-46